createdAt,value
2019-05-25T00:00:26.343Z,15.36
2019-05-25T00:03:49.568Z,15.32
2019-05-25T00:07:12.862Z,15.35
2019-05-25T00:10:36.038Z,15.30
2019-05-25T00:13:59.286Z,15.16
2019-05-25T00:17:22.503Z,15.13
2019-05-25T00:20:45.765Z,15.01
2019-05-25T00:24:12.566Z,14.95
2019-05-25T00:27:34.465Z,14.87
2019-05-25T00:30:57.709Z,14.86
2019-05-25T00:34:20.921Z,14.83
2019-05-25T00:37:44.443Z,14.75
2019-05-25T00:41:07.645Z,14.61
2019-05-25T00:44:30.892Z,14.64
2019-05-25T00:47:54.043Z,14.49
2019-05-25T00:51:17.236Z,14.60
2019-05-25T00:54:59.899Z,14.52
2019-05-25T00:58:22.987Z,14.36
2019-05-25T01:01:46.152Z,14.35
2019-05-25T01:05:09.479Z,14.32
2019-05-25T01:08:32.713Z,14.29
2019-05-25T01:11:56.128Z,14.28
2019-05-25T01:15:19.511Z,14.21
2019-05-25T01:18:42.889Z,14.24
2019-05-25T01:22:06.115Z,13.95
2019-05-25T01:25:29.248Z,14.04
2019-05-25T01:28:52.411Z,13.85
2019-05-25T01:32:15.583Z,13.89
2019-05-25T01:35:38.692Z,13.94
2019-05-25T01:39:01.927Z,13.70
2019-05-25T01:42:26.125Z,13.65
2019-05-25T01:45:50.296Z,13.66
2019-05-25T01:49:13.397Z,13.57
2019-05-25T01:52:36.600Z,13.59
2019-05-25T01:55:59.893Z,13.56
2019-05-25T01:59:23.123Z,13.52
2019-05-25T02:02:46.438Z,13.45
2019-05-25T02:06:09.948Z,13.42
2019-05-25T02:09:33.149Z,13.33
2019-05-25T02:12:56.307Z,13.39
2019-05-25T02:16:19.486Z,13.35
2019-05-25T02:19:42.823Z,13.26
2019-05-25T02:23:07.229Z,13.24
2019-05-25T02:26:30.323Z,13.34
2019-05-25T02:29:53.708Z,13.26
2019-05-25T02:33:16.929Z,13.29
2019-05-25T02:36:40.380Z,13.21
2019-05-25T02:40:04.604Z,13.19
2019-05-25T02:43:27.680Z,13.21
2019-05-25T02:46:51.091Z,13.21
2019-05-25T02:50:14.825Z,13.17
2019-05-25T02:53:38.204Z,13.14
2019-05-25T02:57:02.297Z,13.17
2019-05-25T03:00:32.452Z,13.19
2019-05-25T03:03:55.644Z,13.04
2019-05-25T03:07:20.409Z,12.97
2019-05-25T03:10:43.741Z,12.96
2019-05-25T03:14:06.823Z,12.99
2019-05-25T03:17:29.973Z,12.94
2019-05-25T03:20:53.148Z,12.87
2019-05-25T03:24:16.289Z,12.83
2019-05-25T03:27:39.395Z,12.74
2019-05-25T03:31:02.464Z,12.79
2019-05-25T03:34:25.549Z,12.72
2019-05-25T03:37:48.794Z,12.68
2019-05-25T03:41:11.974Z,12.67
2019-05-25T03:44:35.049Z,12.74
2019-05-25T03:47:58.455Z,12.66
2019-05-25T03:51:21.554Z,12.61
2019-05-25T03:54:44.761Z,12.63
2019-05-25T03:58:07.966Z,12.66
2019-05-25T04:01:31.337Z,12.64
2019-05-25T04:04:54.694Z,12.58
2019-05-25T04:08:17.876Z,12.67
2019-05-25T04:11:40.959Z,12.66
2019-05-25T04:15:05.861Z,12.80
2019-05-25T04:18:29.806Z,12.99
2019-05-25T04:21:53.271Z,13.20
2019-05-25T04:25:16.429Z,13.45
2019-05-25T04:28:39.527Z,13.67
2019-05-25T04:32:02.669Z,13.86
2019-05-25T04:35:25.812Z,13.92
2019-05-25T04:38:49.140Z,14.00
2019-05-25T04:42:12.377Z,14.13
2019-05-25T04:45:35.478Z,14.18
2019-05-25T04:48:58.567Z,14.19
2019-05-25T04:52:21.669Z,14.31
2019-05-25T04:55:44.837Z,14.36
2019-05-25T04:59:07.999Z,14.27
2019-05-25T05:02:31.072Z,14.36
2019-05-25T05:05:54.169Z,14.33
2019-05-25T05:09:17.284Z,14.41
2019-05-25T05:12:40.346Z,14.54
2019-05-25T05:16:03.758Z,14.77
2019-05-25T05:19:26.919Z,14.75
2019-05-25T05:22:50.141Z,14.99
2019-05-25T05:26:13.205Z,14.98
2019-05-25T05:29:36.285Z,15.06
2019-05-25T05:32:59.494Z,15.32
2019-05-25T05:36:23.627Z,15.61
2019-05-25T05:39:47.067Z,15.79
2019-05-25T05:43:11.084Z,15.94
2019-05-25T05:46:36.206Z,16.16
2019-05-25T05:50:02.224Z,16.31
2019-05-25T05:53:25.662Z,16.57
2019-05-25T05:56:49.082Z,16.51
2019-05-25T06:00:13.361Z,17.00
2019-05-25T06:03:36.431Z,16.72
2019-05-25T06:06:59.512Z,17.22
2019-05-25T06:10:22.691Z,17.71
2019-05-25T06:13:45.815Z,18.10
2019-05-25T06:17:08.923Z,18.02
2019-05-25T06:20:32.279Z,17.71
2019-05-25T06:23:55.678Z,17.69
2019-05-25T06:27:27.283Z,17.36
2019-05-25T06:30:44.532Z,18.05
2019-05-25T06:34:11.415Z,18.14
2019-05-25T06:37:34.912Z,17.64
2019-05-25T06:40:57.999Z,17.60
2019-05-25T06:44:21.065Z,17.83
2019-05-25T06:47:44.204Z,17.55
2019-05-25T06:51:07.302Z,17.76
2019-05-25T06:54:30.453Z,18.07
2019-05-25T06:57:53.598Z,18.50
2019-05-25T07:01:16.737Z,18.47
2019-05-25T07:04:39.981Z,18.70
2019-05-25T07:08:03.093Z,18.37
2019-05-25T07:11:26.205Z,18.25
2019-05-25T07:14:52.437Z,18.49
2019-05-25T07:18:15.744Z,19.02
2019-05-25T07:21:41.681Z,18.99
2019-05-25T07:25:05.828Z,19.38
2019-05-25T07:28:29.334Z,18.55
2019-05-25T07:31:53.600Z,18.99
2019-05-25T07:35:16.904Z,19.12
2019-05-25T07:38:40.118Z,19.12
2019-05-25T07:42:03.351Z,18.86
2019-05-25T07:45:26.610Z,18.29
2019-05-25T07:48:52.735Z,18.51
2019-05-25T07:52:15.891Z,18.58
2019-05-25T07:55:38.946Z,17.90
2019-05-25T07:59:02.158Z,17.64
2019-05-25T08:02:26.604Z,18.49
2019-05-25T08:05:49.684Z,18.96
2019-05-25T08:09:12.848Z,18.68
2019-05-25T08:12:36.107Z,18.75
2019-05-25T08:15:59.237Z,19.56
2019-05-25T08:19:22.438Z,19.92
2019-05-25T08:22:45.647Z,19.46
2019-05-25T08:26:08.891Z,19.15
2019-05-25T08:29:32.043Z,19.56
2019-05-25T08:32:55.128Z,20.33
2019-05-25T08:36:18.335Z,19.95
2019-05-25T08:39:41.715Z,20.07
2019-05-25T08:43:04.847Z,19.56
2019-05-25T08:46:28.335Z,19.69
2019-05-25T08:49:51.613Z,20.25
2019-05-25T08:53:14.777Z,19.67
2019-05-25T08:56:38.996Z,20.33
2019-05-25T09:00:02.162Z,20.83
2019-05-25T09:03:26.502Z,21.22
2019-05-25T09:06:49.672Z,21.34
2019-05-25T09:10:13.459Z,21.12
2019-05-25T09:13:36.590Z,21.34
2019-05-25T09:17:00.671Z,21.02
2019-05-25T09:20:23.847Z,21.08
2019-05-25T09:23:48.836Z,21.03
2019-05-25T09:27:12.014Z,21.04
2019-05-25T09:30:35.166Z,21.70
2019-05-25T09:33:58.384Z,21.33
2019-05-25T09:37:21.536Z,21.65
2019-05-25T09:40:44.681Z,21.17
2019-05-25T09:44:07.999Z,21.30
2019-05-25T09:47:32.125Z,22.46
2019-05-25T09:50:55.271Z,22.42
2019-05-25T09:54:18.613Z,22.59
2019-05-25T09:57:42.094Z,23.50
2019-05-25T10:01:05.387Z,23.52
2019-05-25T10:04:28.511Z,22.53
2019-05-25T10:07:51.633Z,23.51
2019-05-25T10:11:14.728Z,22.80
2019-05-25T10:14:38.139Z,23.63
2019-05-25T10:18:01.417Z,23.39
2019-05-25T10:21:24.677Z,24.34
2019-05-25T10:24:47.874Z,23.83
2019-05-25T10:28:11.009Z,23.95
2019-05-25T10:31:34.133Z,24.69
2019-05-25T10:34:57.315Z,22.79
2019-05-25T10:38:20.765Z,23.91
2019-05-25T10:41:44.328Z,24.80
2019-05-25T10:45:08.365Z,24.05
2019-05-25T10:48:31.436Z,24.61
2019-05-25T10:51:54.539Z,24.11
2019-05-25T10:55:17.781Z,23.69
2019-05-25T10:58:41.100Z,24.05
2019-05-25T11:02:04.332Z,24.95
2019-05-25T11:05:27.409Z,25.47
2019-05-25T11:08:50.883Z,25.54
2019-05-25T11:12:14.073Z,25.26
2019-05-25T11:15:37.637Z,26.34
2019-05-25T11:19:00.916Z,28.35
2019-05-25T11:22:24.043Z,26.56
2019-05-25T11:25:47.134Z,26.29
2019-05-25T11:29:10.216Z,25.62
2019-05-25T11:32:33.495Z,26.75
2019-05-25T11:35:56.972Z,27.91
2019-05-25T11:39:20.174Z,29.10
2019-05-25T11:42:43.422Z,27.37
2019-05-25T11:46:06.569Z,25.53
2019-05-25T11:49:29.656Z,26.16
2019-05-25T11:52:52.973Z,25.54
2019-05-25T11:56:16.362Z,27.78
2019-05-25T11:59:39.452Z,27.47
2019-05-25T12:03:02.556Z,27.77
2019-05-25T12:06:26.025Z,28.82
2019-05-25T12:09:49.256Z,31.15
2019-05-25T12:13:12.586Z,30.29
2019-05-25T12:16:35.747Z,28.43
2019-05-25T12:19:59.224Z,28.34
2019-05-25T12:23:22.304Z,28.75
2019-05-25T12:26:45.393Z,28.39
2019-05-25T12:30:09.075Z,28.28
2019-05-25T12:33:32.315Z,31.11
2019-05-25T12:36:55.400Z,29.97
2019-05-25T12:40:19.073Z,28.15
2019-05-25T12:43:43.320Z,29.25
2019-05-25T12:47:06.486Z,27.28
2019-05-25T12:50:29.676Z,27.31
2019-05-25T12:53:53.039Z,29.05
2019-05-25T12:57:16.231Z,30.45
2019-05-25T13:00:39.322Z,30.89
2019-05-25T13:04:02.441Z,31.59
2019-05-25T13:07:25.625Z,31.84
2019-05-25T13:10:48.760Z,32.07
2019-05-25T13:14:14.869Z,29.82
2019-05-25T13:17:37.142Z,30.04
2019-05-25T13:21:00.452Z,32.01
2019-05-25T13:24:23.851Z,32.18
2019-05-25T13:27:46.956Z,33.30
2019-05-25T13:31:12.046Z,34.36
2019-05-25T13:34:35.399Z,32.84
2019-05-25T13:38:01.259Z,32.37
2019-05-25T13:41:24.459Z,33.52
2019-05-25T13:44:47.674Z,33.60
2019-05-25T13:48:11.289Z,34.21
2019-05-25T13:51:34.556Z,35.31
2019-05-25T13:54:57.995Z,32.69
2019-05-25T13:58:21.225Z,30.66
2019-05-25T14:01:44.388Z,29.73
2019-05-25T14:05:07.905Z,29.58
2019-05-25T14:08:31.171Z,29.70
2019-05-25T14:11:54.318Z,28.25
2019-05-25T14:15:17.559Z,28.46
2019-05-25T14:18:40.657Z,28.25
2019-05-25T14:22:03.778Z,26.88
2019-05-25T14:25:26.924Z,26.50
2019-05-25T14:28:50.217Z,27.95
2019-05-25T14:32:13.311Z,28.88
2019-05-25T14:35:36.550Z,28.32
2019-05-25T14:38:59.666Z,28.27
2019-05-25T14:42:22.950Z,28.62
2019-05-25T14:45:46.233Z,28.31
2019-05-25T14:49:09.473Z,28.03
2019-05-25T14:52:34.625Z,27.23
2019-05-25T14:55:58.123Z,27.96
2019-05-25T14:59:21.309Z,26.83
2019-05-25T15:02:44.949Z,26.98
2019-05-25T15:06:08.052Z,26.52
2019-05-25T15:09:31.214Z,26.06
2019-05-25T15:12:54.438Z,26.83
2019-05-25T15:16:17.884Z,31.60
2019-05-25T15:19:41.012Z,32.93
2019-05-25T15:23:04.141Z,33.79
2019-05-25T15:26:27.288Z,30.33
2019-05-25T15:29:50.710Z,28.82
2019-05-25T15:33:14.245Z,29.83
2019-05-25T15:36:37.522Z,32.79
2019-05-25T15:40:00.944Z,33.29
2019-05-25T15:43:24.018Z,31.49
2019-05-25T15:46:47.236Z,29.12
2019-05-25T15:50:12.319Z,31.51
2019-05-25T15:53:35.618Z,30.50
2019-05-25T15:56:58.980Z,30.27
2019-05-25T16:00:44.651Z,32.03
2019-05-25T16:04:07.917Z,33.20
2019-05-25T16:07:31.733Z,36.74
2019-05-25T16:10:54.988Z,37.45
2019-05-25T16:14:18.304Z,35.91
2019-05-25T16:17:41.622Z,36.35
2019-05-25T16:21:04.800Z,36.99
2019-05-25T16:24:27.902Z,36.00
2019-05-25T16:27:51.029Z,34.80
2019-05-25T16:31:14.179Z,34.28
2019-05-25T16:34:37.480Z,31.49
2019-05-25T16:38:00.826Z,32.60
2019-05-25T16:41:24.238Z,32.59
2019-05-25T16:44:47.399Z,31.68
2019-05-25T16:48:10.465Z,30.14
2019-05-25T16:51:34.665Z,29.22
2019-05-25T16:54:57.894Z,28.65
2019-05-25T16:58:22.172Z,28.11
2019-05-25T17:01:48.583Z,27.58
2019-05-25T17:05:10.708Z,27.77
2019-05-25T17:08:34.040Z,28.56
2019-05-25T17:11:57.152Z,28.07
2019-05-25T17:15:20.223Z,27.53
2019-05-25T17:18:43.415Z,26.49
2019-05-25T17:22:06.683Z,26.38
2019-05-25T17:25:31.178Z,26.41
2019-05-25T17:28:54.367Z,26.32
2019-05-25T17:32:17.742Z,25.99
2019-05-25T17:35:40.955Z,26.39
2019-05-25T17:39:06.110Z,25.55
2019-05-25T17:42:29.337Z,25.14
2019-05-25T17:45:53.437Z,25.27
2019-05-25T17:49:16.641Z,24.65
2019-05-25T17:52:39.817Z,25.68
2019-05-25T17:56:03.311Z,25.01
2019-05-25T17:59:26.374Z,25.37
2019-05-25T18:02:49.737Z,24.60
2019-05-25T18:06:13.994Z,24.98
2019-05-25T18:09:37.309Z,24.45
2019-05-25T18:13:00.510Z,23.73
2019-05-25T18:16:24.173Z,23.96
2019-05-25T18:19:47.395Z,23.87
2019-05-25T18:23:11.250Z,23.60
2019-05-25T18:26:34.523Z,23.86
2019-05-25T18:30:06.341Z,23.33
2019-05-25T18:33:29.581Z,23.34
2019-05-25T18:36:52.823Z,23.35
2019-05-25T18:40:16.924Z,23.42
2019-05-25T18:43:40.057Z,22.99
2019-05-25T18:47:03.269Z,23.11
2019-05-25T18:50:26.478Z,23.26
2019-05-25T18:53:49.729Z,22.75
2019-05-25T18:57:12.943Z,22.98
2019-05-25T19:00:36.066Z,23.03
2019-05-25T19:03:59.260Z,22.84
2019-05-25T19:07:22.392Z,22.74
2019-05-25T19:10:45.595Z,22.61
2019-05-25T19:14:08.749Z,22.47
2019-05-25T19:17:32.479Z,21.95
2019-05-25T19:20:55.615Z,21.76
2019-05-25T19:24:18.736Z,21.58
2019-05-25T19:27:41.856Z,21.33
2019-05-25T19:31:05.206Z,21.11
2019-05-25T19:34:28.354Z,20.69
2019-05-25T19:37:51.473Z,20.56
2019-05-25T19:41:14.978Z,20.47
2019-05-25T19:44:38.316Z,20.17
2019-05-25T19:48:01.547Z,20.08
2019-05-25T19:51:24.913Z,20.08
2019-05-25T19:54:48.202Z,19.55
2019-05-25T19:58:11.970Z,19.33
2019-05-25T20:01:36.189Z,19.16
2019-05-25T20:05:15.187Z,19.04
2019-05-25T20:08:25.727Z,19.04
2019-05-25T20:11:49.687Z,18.98
2019-05-25T20:15:14.178Z,18.89
2019-05-25T20:18:38.195Z,18.96
2019-05-25T20:22:01.411Z,18.65
2019-05-25T20:25:25.802Z,18.62
2019-05-25T20:28:51.585Z,18.47
2019-05-25T20:32:16.854Z,18.21
2019-05-25T20:35:41.505Z,18.02
2019-05-25T20:39:06.317Z,18.06
2019-05-25T20:42:30.337Z,18.07
2019-05-25T20:45:53.703Z,18.18
2019-05-25T20:49:16.954Z,18.01
2019-05-25T20:52:40.491Z,18.04
2019-05-25T20:56:04.453Z,18.01
2019-05-25T20:59:28.209Z,17.90
2019-05-25T21:03:05.361Z,17.91
2019-05-25T21:06:17.753Z,18.00
2019-05-25T21:09:41.366Z,17.73
2019-05-25T21:13:05.010Z,17.71
2019-05-25T21:16:28.700Z,17.56
2019-05-25T21:19:52.305Z,17.47
2019-05-25T21:23:15.879Z,17.50
2019-05-25T21:26:39.049Z,17.30
2019-05-25T21:30:02.835Z,17.29
2019-05-25T21:33:26.244Z,16.97
2019-05-25T21:36:49.577Z,16.97
2019-05-25T21:40:13.089Z,16.91
2019-05-25T21:43:36.603Z,16.81
2019-05-25T21:46:59.698Z,16.87
2019-05-25T21:50:23.005Z,16.81
2019-05-25T21:53:46.082Z,16.65
2019-05-25T21:57:09.211Z,16.41
2019-05-25T22:00:34.365Z,16.37
2019-05-25T22:03:59.430Z,16.43
2019-05-25T22:07:22.818Z,16.25
2019-05-25T22:10:46.905Z,16.25
2019-05-25T22:14:10.278Z,16.17
2019-05-25T22:17:33.400Z,16.08
2019-05-25T22:20:56.842Z,16.09
2019-05-25T22:24:20.172Z,16.04
2019-05-25T22:27:43.318Z,15.93
2019-05-25T22:31:06.709Z,15.91
2019-05-25T22:34:29.939Z,15.83
2019-05-25T22:37:53.041Z,15.73
2019-05-25T22:41:19.830Z,15.65
2019-05-25T22:44:42.546Z,15.65
2019-05-25T22:48:06.245Z,15.67
2019-05-25T22:51:30.000Z,15.52
2019-05-25T22:54:53.284Z,15.52
2019-05-25T22:58:16.473Z,15.32
2019-05-25T23:01:39.651Z,15.29
2019-05-25T23:05:06.853Z,15.35
2019-05-25T23:08:28.057Z,15.51
2019-05-25T23:11:51.188Z,15.35
2019-05-25T23:15:14.855Z,15.34
2019-05-25T23:18:38.078Z,15.27
2019-05-25T23:22:01.191Z,15.35
2019-05-25T23:25:24.665Z,15.34
2019-05-25T23:28:47.765Z,15.35
2019-05-25T23:32:10.957Z,15.20
2019-05-25T23:35:37.163Z,15.16
2019-05-25T23:39:00.363Z,15.03
2019-05-25T23:42:23.496Z,15.07
2019-05-25T23:45:46.715Z,15.16
2019-05-25T23:49:10.015Z,15.01
2019-05-25T23:52:33.132Z,15.01
2019-05-25T23:55:56.258Z,14.97
2019-05-25T23:59:19.487Z,15.03
